sensor_id;sensor_type;location;lat;lon;timestamp;P1;durP1;ratioP1;P2;durP2;ratioP2
61460;SDS011;47325;50.506;4.472;2023-02-01T00:01:33;17.90;;;9.40;;
61460;SDS011;47325;50.506;4.472;2023-02-01T00:07:18;20.40;;;9.90;;
61460;SDS011;47325;50.506;4.472;2023-02-01T00:13:02;20.90;;;8.80;;
61460;SDS011;47325;50.506;4.472;2023-02-01T00:18:46;23.10;;;9.30;;
61460;SDS011;47325;50.506;4.472;2023-02-01T00:24:30;18.50;;;9.00;;
61460;SDS011;47325;50.506;4.472;2023-02-01T00:30:15;16.20;;;8.30;;
61460;SDS011;47325;50.506;4.472;2023-02-01T00:36:00;19.40;;;8.90;;
61460;SDS011;47325;50.506;4.472;2023-02-01T00:41:44;18.40;;;7.80;;
61460;SDS011;47325;50.506;4.472;2023-02-01T00:47:28;17.40;;;8.10;;
61460;SDS011;47325;50.506;4.472;2023-02-01T00:53:12;20.10;;;7.90;;
61460;SDS011;47325;50.506;4.472;2023-02-01T00:58:56;17.60;;;7.40;;
61460;SDS011;47325;50.506;4.472;2023-02-01T01:04:40;15.30;;;6.50;;
61460;SDS011;47325;50.506;4.472;2023-02-01T01:10:24;14.70;;;6.50;;
61460;SDS011;47325;50.506;4.472;2023-02-01T01:16:08;13.90;;;6.80;;
61460;SDS011;47325;50.506;4.472;2023-02-01T01:21:53;14.30;;;6.70;;
61460;SDS011;47325;50.506;4.472;2023-02-01T01:27:37;17.80;;;6.60;;
61460;SDS011;47325;50.506;4.472;2023-02-01T01:33:21;15.40;;;6.20;;
61460;SDS011;47325;50.506;4.472;2023-02-01T01:39:05;14.30;;;6.30;;
61460;SDS011;47325;50.506;4.472;2023-02-01T01:44:59;13.40;;;5.70;;
61460;SDS011;47325;50.506;4.472;2023-02-01T01:50:45;14.60;;;5.70;;
61460;SDS011;47325;50.506;4.472;2023-02-01T01:56:30;12.80;;;5.40;;
61460;SDS011;47325;50.506;4.472;2023-02-01T02:02:15;13.00;;;5.30;;
61460;SDS011;47325;50.506;4.472;2023-02-01T02:08:00;14.50;;;5.10;;
61460;SDS011;47325;50.506;4.472;2023-02-01T02:13:45;15.40;;;5.10;;
61460;SDS011;47325;50.506;4.472;2023-02-01T02:25:32;12.00;;;4.30;;
61460;SDS011;47325;50.506;4.472;2023-02-01T02:31:30;12.10;;;4.50;;
61460;SDS011;47325;50.506;4.472;2023-02-01T02:37:19;11.40;;;4.30;;
61460;SDS011;47325;50.506;4.472;2023-02-01T02:43:09;11.60;;;4.10;;
61460;SDS011;47325;50.506;4.472;2023-02-01T02:48:58;12.00;;;4.00;;
61460;SDS011;47325;50.506;4.472;2023-02-01T02:54:45;13.60;;;4.30;;
61460;SDS011;47325;50.506;4.472;2023-02-01T03:00:31;9.50;;;3.90;;
61460;SDS011;47325;50.506;4.472;2023-02-01T03:06:16;12.90;;;4.20;;
61460;SDS011;47325;50.506;4.472;2023-02-01T03:12:01;15.00;;;4.10;;
61460;SDS011;47325;50.506;4.472;2023-02-01T03:17:48;12.20;;;3.50;;
61460;SDS011;47325;50.506;4.472;2023-02-01T03:23:34;14.70;;;3.30;;
61460;SDS011;47325;50.506;4.472;2023-02-01T03:29:21;8.40;;;3.30;;
61460;SDS011;47325;50.506;4.472;2023-02-01T03:35:08;9.40;;;3.20;;
61460;SDS011;47325;50.506;4.472;2023-02-01T03:40:53;14.90;;;4.10;;
61460;SDS011;47325;50.506;4.472;2023-02-01T03:46:41;11.50;;;3.40;;
61460;SDS011;47325;50.506;4.472;2023-02-01T03:52:28;12.50;;;3.50;;
61460;SDS011;47325;50.506;4.472;2023-02-01T03:58:13;10.10;;;3.40;;
61460;SDS011;47325;50.506;4.472;2023-02-01T04:03:57;10.10;;;3.20;;
61460;SDS011;47325;50.506;4.472;2023-02-01T04:09:41;12.00;;;3.50;;
61460;SDS011;47325;50.506;4.472;2023-02-01T04:15:25;13.20;;;3.20;;
61460;SDS011;47325;50.506;4.472;2023-02-01T04:21:09;9.30;;;3.30;;
61460;SDS011;47325;50.506;4.472;2023-02-01T04:26:53;14.20;;;3.80;;
61460;SDS011;47325;50.506;4.472;2023-02-01T04:32:36;11.30;;;3.60;;
61460;SDS011;47325;50.506;4.472;2023-02-01T04:38:24;13.30;;;3.90;;
61460;SDS011;47325;50.506;4.472;2023-02-01T04:44:08;12.30;;;4.20;;
61460;SDS011;47325;50.506;4.472;2023-02-01T04:49:56;13.00;;;4.00;;
61460;SDS011;47325;50.506;4.472;2023-02-01T04:55:40;14.80;;;4.40;;
61460;SDS011;47325;50.506;4.472;2023-02-01T05:01:24;11.60;;;3.90;;
61460;SDS011;47325;50.506;4.472;2023-02-01T05:07:08;13.10;;;3.70;;
61460;SDS011;47325;50.506;4.472;2023-02-01T05:12:52;14.40;;;3.90;;
61460;SDS011;47325;50.506;4.472;2023-02-01T05:18:36;9.70;;;3.60;;
61460;SDS011;47325;50.506;4.472;2023-02-01T05:24:20;12.40;;;3.50;;
61460;SDS011;47325;50.506;4.472;2023-02-01T05:30:04;15.60;;;3.90;;
61460;SDS011;47325;50.506;4.472;2023-02-01T05:35:48;11.60;;;3.60;;
61460;SDS011;47325;50.506;4.472;2023-02-01T05:41:32;11.70;;;3.40;;
61460;SDS011;47325;50.506;4.472;2023-02-01T05:47:16;15.90;;;3.80;;
61460;SDS011;47325;50.506;4.472;2023-02-01T05:53:00;13.70;;;3.40;;
61460;SDS011;47325;50.506;4.472;2023-02-01T05:58:44;15.10;;;3.90;;
61460;SDS011;47325;50.506;4.472;2023-02-01T06:04:28;12.80;;;3.50;;
61460;SDS011;47325;50.506;4.472;2023-02-01T06:10:12;12.40;;;3.40;;
61460;SDS011;47325;50.506;4.472;2023-02-01T06:15:56;12.10;;;3.20;;
61460;SDS011;47325;50.506;4.472;2023-02-01T06:21:40;13.20;;;3.50;;
61460;SDS011;47325;50.506;4.472;2023-02-01T06:27:24;11.40;;;3.30;;
61460;SDS011;47325;50.506;4.472;2023-02-01T06:33:08;11.20;;;3.10;;
61460;SDS011;47325;50.506;4.472;2023-02-01T06:38:52;11.80;;;2.90;;
61460;SDS011;47325;50.506;4.472;2023-02-01T06:44:35;12.70;;;3.40;;
61460;SDS011;47325;50.506;4.472;2023-02-01T06:50:20;10.10;;;3.60;;
61460;SDS011;47325;50.506;4.472;2023-02-01T06:56:06;15.10;;;3.80;;
61460;SDS011;47325;50.506;4.472;2023-02-01T07:01:50;10.30;;;2.90;;
61460;SDS011;47325;50.506;4.472;2023-02-01T07:07:34;14.10;;;3.30;;
61460;SDS011;47325;50.506;4.472;2023-02-01T07:13:18;14.90;;;3.70;;
61460;SDS011;47325;50.506;4.472;2023-02-01T07:19:06;17.10;;;3.90;;
61460;SDS011;47325;50.506;4.472;2023-02-01T07:24:50;15.40;;;3.90;;
61460;SDS011;47325;50.506;4.472;2023-02-01T07:30:34;14.60;;;4.20;;
61460;SDS011;47325;50.506;4.472;2023-02-01T07:36:18;14.60;;;4.00;;
61460;SDS011;47325;50.506;4.472;2023-02-01T07:42:02;16.50;;;4.30;;
61460;SDS011;47325;50.506;4.472;2023-02-01T07:47:50;16.60;;;4.30;;
61460;SDS011;47325;50.506;4.472;2023-02-01T07:53:35;16.10;;;4.20;;
61460;SDS011;47325;50.506;4.472;2023-02-01T07:59:19;15.20;;;3.60;;
61460;SDS011;47325;50.506;4.472;2023-02-01T08:05:03;16.90;;;3.90;;
61460;SDS011;47325;50.506;4.472;2023-02-01T08:10:47;15.90;;;3.80;;
61460;SDS011;47325;50.506;4.472;2023-02-01T08:16:31;16.90;;;3.90;;
61460;SDS011;47325;50.506;4.472;2023-02-01T08:22:15;16.10;;;3.50;;
61460;SDS011;47325;50.506;4.472;2023-02-01T08:27:59;17.70;;;3.90;;
61460;SDS011;47325;50.506;4.472;2023-02-01T08:33:43;11.80;;;3.20;;
61460;SDS011;47325;50.506;4.472;2023-02-01T08:39:27;15.40;;;4.00;;
61460;SDS011;47325;50.506;4.472;2023-02-01T08:45:11;15.40;;;3.70;;
61460;SDS011;47325;50.506;4.472;2023-02-01T08:50:55;16.60;;;4.10;;
61460;SDS011;47325;50.506;4.472;2023-02-01T08:56:39;14.30;;;3.90;;
61460;SDS011;47325;50.506;4.472;2023-02-01T09:02:23;20.80;;;4.40;;
61460;SDS011;47325;50.506;4.472;2023-02-01T09:08:08;17.30;;;3.90;;
61460;SDS011;47325;50.506;4.472;2023-02-01T09:13:51;15.00;;;4.00;;
61460;SDS011;47325;50.506;4.472;2023-02-01T09:19:35;15.70;;;4.30;;
61460;SDS011;47325;50.506;4.472;2023-02-01T09:25:20;14.20;;;3.80;;
61460;SDS011;47325;50.506;4.472;2023-02-01T09:31:05;17.70;;;3.90;;
61460;SDS011;47325;50.506;4.472;2023-02-01T09:36:50;15.90;;;3.80;;
61460;SDS011;47325;50.506;4.472;2023-02-01T09:42:40;15.80;;;3.50;;
61460;SDS011;47325;50.506;4.472;2023-02-01T09:48:29;12.40;;;3.90;;
61460;SDS011;47325;50.506;4.472;2023-02-01T09:54:15;16.20;;;3.90;;
61460;SDS011;47325;50.506;4.472;2023-02-01T10:00:00;14.20;;;3.50;;
61460;SDS011;47325;50.506;4.472;2023-02-01T10:11:52;14.40;;;3.60;;
61460;SDS011;47325;50.506;4.472;2023-02-01T10:17:44;12.40;;;3.60;;
61460;SDS011;47325;50.506;4.472;2023-02-01T10:23:38;12.20;;;3.60;;
61460;SDS011;47325;50.506;4.472;2023-02-01T10:29:26;15.20;;;3.60;;
61460;SDS011;47325;50.506;4.472;2023-02-01T10:35:15;15.40;;;4.20;;
61460;SDS011;47325;50.506;4.472;2023-02-01T10:41:01;15.90;;;4.00;;
61460;SDS011;47325;50.506;4.472;2023-02-01T10:46:46;15.20;;;4.20;;
61460;SDS011;47325;50.506;4.472;2023-02-01T10:52:33;12.00;;;3.50;;
61460;SDS011;47325;50.506;4.472;2023-02-01T10:58:19;14.80;;;3.40;;
61460;SDS011;47325;50.506;4.472;2023-02-01T11:04:04;13.60;;;2.90;;
61460;SDS011;47325;50.506;4.472;2023-02-01T11:09:52;10.80;;;2.80;;
61460;SDS011;47325;50.506;4.472;2023-02-01T11:15:36;13.60;;;3.00;;
61460;SDS011;47325;50.506;4.472;2023-02-01T11:21:21;10.00;;;2.70;;
61460;SDS011;47325;50.506;4.472;2023-02-01T11:27:06;9.80;;;2.30;;
61460;SDS011;47325;50.506;4.472;2023-02-01T11:33:09;9.70;;;2.00;;
61460;SDS011;47325;50.506;4.472;2023-02-01T11:39:07;9.60;;;1.90;;
61460;SDS011;47325;50.506;4.472;2023-02-01T11:44:47;10.50;;;2.50;;
61460;SDS011;47325;50.506;4.472;2023-02-01T11:50:36;9.40;;;2.20;;
61460;SDS011;47325;50.506;4.472;2023-02-01T11:56:23;8.20;;;2.30;;
61460;SDS011;47325;50.506;4.472;2023-02-01T12:02:17;8.40;;;2.00;;
61460;SDS011;47325;50.506;4.472;2023-02-01T12:08:10;9.50;;;1.90;;
61460;SDS011;47325;50.506;4.472;2023-02-01T12:14:01;11.60;;;2.30;;
61460;SDS011;47325;50.506;4.472;2023-02-01T12:19:53;6.30;;;1.90;;
61460;SDS011;47325;50.506;4.472;2023-02-01T12:25:44;9.40;;;2.10;;
61460;SDS011;47325;50.506;4.472;2023-02-01T12:31:38;9.30;;;2.10;;
61460;SDS011;47325;50.506;4.472;2023-02-01T12:37:32;9.50;;;2.20;;
61460;SDS011;47325;50.506;4.472;2023-02-01T12:43:25;9.10;;;2.00;;
61460;SDS011;47325;50.506;4.472;2023-02-01T12:49:11;8.20;;;1.90;;
61460;SDS011;47325;50.506;4.472;2023-02-01T12:54:59;9.50;;;2.40;;
61460;SDS011;47325;50.506;4.472;2023-02-01T13:00:47;10.20;;;2.90;;
61460;SDS011;47325;50.506;4.472;2023-02-01T13:06:34;11.50;;;2.60;;
61460;SDS011;47325;50.506;4.472;2023-02-01T13:12:21;11.50;;;2.50;;
61460;SDS011;47325;50.506;4.472;2023-02-01T13:18:05;6.10;;;2.10;;
61460;SDS011;47325;50.506;4.472;2023-02-01T13:23:50;6.90;;;2.20;;
61460;SDS011;47325;50.506;4.472;2023-02-01T13:29:36;8.30;;;2.80;;
61460;SDS011;47325;50.506;4.472;2023-02-01T13:35:28;12.00;;;2.80;;
61460;SDS011;47325;50.506;4.472;2023-02-01T13:41:20;9.60;;;2.80;;
61460;SDS011;47325;50.506;4.472;2023-02-01T13:47:09;9.60;;;2.90;;
61460;SDS011;47325;50.506;4.472;2023-02-01T13:52:56;10.80;;;2.70;;
61460;SDS011;47325;50.506;4.472;2023-02-01T13:58:42;10.20;;;3.00;;
61460;SDS011;47325;50.506;4.472;2023-02-01T14:16:18;10.00;;;2.80;;
61460;SDS011;47325;50.506;4.472;2023-02-01T14:22:31;9.30;;;2.80;;
61460;SDS011;47325;50.506;4.472;2023-02-01T14:27:52;11.00;;;2.90;;
61460;SDS011;47325;50.506;4.472;2023-02-01T14:33:37;10.90;;;2.90;;
61460;SDS011;47325;50.506;4.472;2023-02-01T14:39:26;10.10;;;2.70;;
61460;SDS011;47325;50.506;4.472;2023-02-01T14:51:08;10.50;;;2.80;;
61460;SDS011;47325;50.506;4.472;2023-02-01T14:56:55;10.30;;;3.20;;
61460;SDS011;47325;50.506;4.472;2023-02-01T15:02:39;10.80;;;2.90;;
61460;SDS011;47325;50.506;4.472;2023-02-01T15:08:25;9.90;;;2.90;;
61460;SDS011;47325;50.506;4.472;2023-02-01T15:14:15;12.30;;;3.10;;
61460;SDS011;47325;50.506;4.472;2023-02-01T15:19:59;9.00;;;2.40;;
61460;SDS011;47325;50.506;4.472;2023-02-01T15:25:49;7.30;;;2.50;;
61460;SDS011;47325;50.506;4.472;2023-02-01T15:31:37;9.50;;;2.80;;
61460;SDS011;47325;50.506;4.472;2023-02-01T15:37:22;7.40;;;2.30;;
61460;SDS011;47325;50.506;4.472;2023-02-01T15:43:11;13.40;;;2.60;;
61460;SDS011;47325;50.506;4.472;2023-02-01T15:48:55;10.90;;;2.70;;
61460;SDS011;47325;50.506;4.472;2023-02-01T15:54:41;8.80;;;2.50;;
61460;SDS011;47325;50.506;4.472;2023-02-01T16:00:27;11.10;;;2.40;;
61460;SDS011;47325;50.506;4.472;2023-02-01T16:06:26;8.10;;;2.20;;
61460;SDS011;47325;50.506;4.472;2023-02-01T16:12:02;7.60;;;2.10;;
61460;SDS011;47325;50.506;4.472;2023-02-01T16:17:46;8.50;;;2.40;;
61460;SDS011;47325;50.506;4.472;2023-02-01T16:23:30;9.30;;;2.20;;
61460;SDS011;47325;50.506;4.472;2023-02-01T16:29:15;14.80;;;2.80;;
61460;SDS011;47325;50.506;4.472;2023-02-01T16:34:59;11.20;;;2.30;;
61460;SDS011;47325;50.506;4.472;2023-02-01T16:40:44;7.80;;;2.20;;
61460;SDS011;47325;50.506;4.472;2023-02-01T16:46:28;10.90;;;2.50;;
61460;SDS011;47325;50.506;4.472;2023-02-01T16:52:18;11.20;;;2.20;;
61460;SDS011;47325;50.506;4.472;2023-02-01T16:58:05;7.40;;;2.30;;
61460;SDS011;47325;50.506;4.472;2023-02-01T17:03:49;11.10;;;2.70;;
61460;SDS011;47325;50.506;4.472;2023-02-01T17:09:33;14.30;;;2.40;;
61460;SDS011;47325;50.506;4.472;2023-02-01T17:15:17;29.90;;;11.10;;
61460;SDS011;47325;50.506;4.472;2023-02-01T17:21:03;86.70;;;42.30;;
61460;SDS011;47325;50.506;4.472;2023-02-01T17:26:48;51.40;;;22.10;;
61460;SDS011;47325;50.506;4.472;2023-02-01T17:32:33;44.70;;;19.60;;
61460;SDS011;47325;50.506;4.472;2023-02-01T17:38:18;42.80;;;17.40;;
61460;SDS011;47325;50.506;4.472;2023-02-01T17:44:02;67.50;;;26.70;;
61460;SDS011;47325;50.506;4.472;2023-02-01T17:49:46;65.40;;;24.30;;
61460;SDS011;47325;50.506;4.472;2023-02-01T17:55:31;52.70;;;22.10;;
61460;SDS011;47325;50.506;4.472;2023-02-01T18:01:17;60.40;;;21.90;;
61460;SDS011;47325;50.506;4.472;2023-02-01T18:07:02;42.40;;;18.00;;
61460;SDS011;47325;50.506;4.472;2023-02-01T18:12:46;43.20;;;16.60;;
61460;SDS011;47325;50.506;4.472;2023-02-01T18:18:30;33.10;;;13.10;;
61460;SDS011;47325;50.506;4.472;2023-02-01T18:24:15;28.30;;;11.20;;
61460;SDS011;47325;50.506;4.472;2023-02-01T18:30:00;28.60;;;9.90;;
61460;SDS011;47325;50.506;4.472;2023-02-01T18:35:45;27.50;;;8.70;;
61460;SDS011;47325;50.506;4.472;2023-02-01T18:41:30;24.60;;;7.70;;
61460;SDS011;47325;50.506;4.472;2023-02-01T18:47:15;24.30;;;7.50;;
61460;SDS011;47325;50.506;4.472;2023-02-01T18:53:00;20.30;;;5.90;;
61460;SDS011;47325;50.506;4.472;2023-02-01T18:58:45;18.10;;;5.80;;
61460;SDS011;47325;50.506;4.472;2023-02-01T19:04:28;18.90;;;5.80;;
61460;SDS011;47325;50.506;4.472;2023-02-01T19:10:15;20.90;;;6.00;;
61460;SDS011;47325;50.506;4.472;2023-02-01T19:16:03;22.90;;;5.90;;
61460;SDS011;47325;50.506;4.472;2023-02-01T19:21:49;16.90;;;5.10;;
61460;SDS011;47325;50.506;4.472;2023-02-01T19:27:33;14.30;;;4.80;;
61460;SDS011;47325;50.506;4.472;2023-02-01T19:33:17;16.30;;;5.10;;
61460;SDS011;47325;50.506;4.472;2023-02-01T19:39:01;24.00;;;5.20;;
61460;SDS011;47325;50.506;4.472;2023-02-01T19:44:44;13.40;;;4.90;;
61460;SDS011;47325;50.506;4.472;2023-02-01T19:50:28;16.20;;;4.10;;
61460;SDS011;47325;50.506;4.472;2023-02-01T19:56:12;13.60;;;4.30;;
61460;SDS011;47325;50.506;4.472;2023-02-01T20:01:57;16.50;;;4.30;;
61460;SDS011;47325;50.506;4.472;2023-02-01T20:07:41;17.70;;;3.60;;
61460;SDS011;47325;50.506;4.472;2023-02-01T20:13:25;14.90;;;3.80;;
61460;SDS011;47325;50.506;4.472;2023-02-01T20:19:09;12.40;;;4.30;;
61460;SDS011;47325;50.506;4.472;2023-02-01T20:24:54;14.90;;;4.40;;
61460;SDS011;47325;50.506;4.472;2023-02-01T20:30:38;13.90;;;3.30;;
61460;SDS011;47325;50.506;4.472;2023-02-01T20:36:22;10.40;;;3.30;;
61460;SDS011;47325;50.506;4.472;2023-02-01T20:42:06;17.20;;;3.40;;
61460;SDS011;47325;50.506;4.472;2023-02-01T20:47:51;16.80;;;3.50;;
61460;SDS011;47325;50.506;4.472;2023-02-01T20:53:35;13.70;;;3.30;;
61460;SDS011;47325;50.506;4.472;2023-02-01T20:59:20;17.70;;;3.60;;
61460;SDS011;47325;50.506;4.472;2023-02-01T21:05:04;16.10;;;3.30;;
61460;SDS011;47325;50.506;4.472;2023-02-01T21:10:57;16.80;;;3.70;;
61460;SDS011;47325;50.506;4.472;2023-02-01T21:16:41;14.20;;;3.20;;
61460;SDS011;47325;50.506;4.472;2023-02-01T21:22:25;15.40;;;3.60;;
61460;SDS011;47325;50.506;4.472;2023-02-01T21:28:10;17.30;;;3.20;;
61460;SDS011;47325;50.506;4.472;2023-02-01T21:33:53;14.90;;;3.50;;
61460;SDS011;47325;50.506;4.472;2023-02-01T21:39:38;18.10;;;4.00;;
61460;SDS011;47325;50.506;4.472;2023-02-01T21:45:22;13.90;;;3.10;;
61460;SDS011;47325;50.506;4.472;2023-02-01T21:51:07;16.40;;;3.80;;
61460;SDS011;47325;50.506;4.472;2023-02-01T21:56:51;20.10;;;3.60;;
61460;SDS011;47325;50.506;4.472;2023-02-01T22:02:35;16.60;;;3.60;;
61460;SDS011;47325;50.506;4.472;2023-02-01T22:08:20;15.70;;;3.20;;
61460;SDS011;47325;50.506;4.472;2023-02-01T22:14:04;18.90;;;3.60;;
61460;SDS011;47325;50.506;4.472;2023-02-01T22:19:48;15.10;;;3.00;;
61460;SDS011;47325;50.506;4.472;2023-02-01T22:25:32;15.40;;;3.50;;
61460;SDS011;47325;50.506;4.472;2023-02-01T22:31:17;19.40;;;3.30;;
61460;SDS011;47325;50.506;4.472;2023-02-01T22:37:02;16.20;;;3.10;;
61460;SDS011;47325;50.506;4.472;2023-02-01T22:42:46;14.40;;;3.50;;
61460;SDS011;47325;50.506;4.472;2023-02-01T22:48:31;19.00;;;3.50;;
61460;SDS011;47325;50.506;4.472;2023-02-01T22:54:19;13.80;;;3.30;;
61460;SDS011;47325;50.506;4.472;2023-02-01T23:00:04;13.70;;;3.00;;
61460;SDS011;47325;50.506;4.472;2023-02-01T23:05:49;15.90;;;3.40;;
61460;SDS011;47325;50.506;4.472;2023-02-01T23:11:32;14.90;;;2.90;;
61460;SDS011;47325;50.506;4.472;2023-02-01T23:17:17;16.20;;;3.20;;
61460;SDS011;47325;50.506;4.472;2023-02-01T23:23:01;14.40;;;3.00;;
61460;SDS011;47325;50.506;4.472;2023-02-01T23:28:45;14.70;;;2.80;;
61460;SDS011;47325;50.506;4.472;2023-02-01T23:34:29;14.40;;;2.80;;
61460;SDS011;47325;50.506;4.472;2023-02-01T23:40:14;12.60;;;2.90;;
61460;SDS011;47325;50.506;4.472;2023-02-01T23:46:00;13.30;;;3.20;;
61460;SDS011;47325;50.506;4.472;2023-02-01T23:51:44;12.70;;;3.10;;
61460;SDS011;47325;50.506;4.472;2023-02-01T23:57:28;15.90;;;3.00;;
